createdAt,value
2023-01-18T00:03:13.488Z,-1.13
2023-01-18T00:08:13.511Z,-1.09
2023-01-18T00:13:14.417Z,-1.15
2023-01-18T00:18:13.350Z,-1.16
2023-01-18T00:23:13.295Z,-1.28
2023-01-18T00:28:13.261Z,-1.17
2023-01-18T00:33:13.156Z,-1.22
2023-01-18T00:38:13.117Z,-1.27
2023-01-18T00:43:13.108Z,-1.28
2023-01-18T00:48:13.234Z,-1.23
2023-01-18T00:53:13.089Z,-1.27
2023-01-18T00:58:12.960Z,-1.25
2023-01-18T01:03:12.854Z,-1.37
2023-01-18T01:08:12.837Z,-1.38
2023-01-18T01:13:12.696Z,-1.40
2023-01-18T01:18:12.724Z,-1.45
2023-01-18T01:23:12.642Z,-1.54
2023-01-18T01:28:12.513Z,-1.46
2023-01-18T01:33:12.615Z,-1.51
2023-01-18T01:38:13.561Z,-1.61
2023-01-18T01:43:12.523Z,-1.58
2023-01-18T01:48:12.334Z,-1.59
2023-01-18T01:53:12.281Z,-1.66
2023-01-18T01:58:12.242Z,-1.66
2023-01-18T02:03:12.349Z,-1.69
2023-01-18T02:08:12.084Z,-1.66
2023-01-18T02:13:12.043Z,-1.74
2023-01-18T02:18:12.086Z,-1.80
2023-01-18T02:23:11.928Z,-1.80
2023-01-18T02:28:11.898Z,-1.88
2023-01-18T02:33:11.829Z,-1.70
2023-01-18T02:38:11.807Z,-1.74
2023-01-18T02:43:11.714Z,-1.84
2023-01-18T02:48:11.634Z,-1.82
2023-01-18T02:53:11.656Z,-1.88
2023-01-18T02:58:11.566Z,-1.94
2023-01-18T03:03:11.660Z,-1.88
2023-01-18T03:08:11.462Z,-1.90
2023-01-18T03:13:12.538Z,-1.85
2023-01-18T03:18:11.371Z,-1.92
2023-01-18T03:23:11.307Z,-1.84
2023-01-18T03:28:11.265Z,-1.80
2023-01-18T03:33:11.187Z,-1.87
2023-01-18T03:38:11.157Z,-1.88
2023-01-18T03:43:11.081Z,-1.92
2023-01-18T03:48:11.104Z,-2.00
2023-01-18T03:53:11.131Z,-1.90
2023-01-18T03:58:10.975Z,-1.98
2023-01-18T04:03:10.931Z,-1.94
2023-01-18T04:08:10.830Z,-1.95
2023-01-18T04:13:10.803Z,-2.02
2023-01-18T04:18:10.752Z,-2.03
2023-01-18T04:23:10.726Z,-2.08
2023-01-18T04:28:19.519Z,-2.03
2023-01-18T04:33:10.640Z,-2.06
2023-01-18T04:38:10.516Z,-2.09
2023-01-18T04:43:10.430Z,-2.10
2023-01-18T04:48:10.400Z,-2.08
2023-01-18T04:53:10.358Z,-2.09
2023-01-18T04:58:10.270Z,-2.13
2023-01-18T05:03:10.258Z,-2.13
2023-01-18T05:08:10.196Z,-2.20
2023-01-18T05:13:10.116Z,-2.21
2023-01-18T05:18:10.256Z,-2.20
2023-01-18T05:23:10.192Z,-2.23
2023-01-18T05:28:09.981Z,-2.35
2023-01-18T05:33:10.083Z,-2.20
2023-01-18T05:38:09.882Z,-2.21
2023-01-18T05:43:09.804Z,-2.20
2023-01-18T05:48:09.757Z,-2.26
2023-01-18T05:53:09.729Z,-2.27
2023-01-18T05:58:09.677Z,-2.27
2023-01-18T06:03:10.835Z,-2.35
2023-01-18T06:08:09.662Z,-2.29
2023-01-18T06:13:09.589Z,-2.23
2023-01-18T06:18:09.443Z,-2.27
2023-01-18T06:23:09.411Z,-2.20
2023-01-18T06:28:09.351Z,-2.26
2023-01-18T06:33:09.442Z,-2.13
2023-01-18T06:38:09.385Z,-2.10
2023-01-18T06:44:33.475Z,-2.21
2023-01-18T06:49:20.612Z,-2.13
2023-01-18T06:54:20.423Z,-2.18
2023-01-18T06:59:20.355Z,-2.09
2023-01-18T07:04:20.358Z,-2.16
2023-01-18T07:09:20.357Z,-2.23
2023-01-18T07:14:20.195Z,-2.26
2023-01-18T07:19:20.210Z,-2.29
2023-01-18T07:24:20.202Z,-2.26
2023-01-18T07:29:20.131Z,-2.27
2023-01-18T07:34:20.087Z,-2.29
2023-01-18T07:39:20.016Z,-2.26
2023-01-18T07:44:19.905Z,-2.16
2023-01-18T07:49:19.824Z,-2.26
2023-01-18T07:54:19.841Z,-2.27
2023-01-18T07:59:19.713Z,-2.23
2023-01-18T08:04:19.688Z,-1.95
2023-01-18T08:09:19.591Z,-1.98
2023-01-18T08:14:19.539Z,-1.94
2023-01-18T08:19:19.497Z,-1.97
2023-01-18T08:24:19.433Z,-1.77
2023-01-18T08:29:19.382Z,-1.73
2023-01-18T08:34:19.331Z,-1.67
2023-01-18T08:39:19.316Z,-1.56
2023-01-18T08:44:19.232Z,-1.37
2023-01-18T08:49:19.206Z,-1.43
2023-01-18T08:54:19.133Z,-1.13
2023-01-18T08:59:19.195Z,-1.17
2023-01-18T09:04:19.069Z,-0.98
2023-01-18T09:09:18.980Z,-0.91
2023-01-18T09:14:18.941Z,-0.76
2023-01-18T09:19:18.901Z,-0.67
2023-01-18T09:24:18.841Z,-0.58
2023-01-18T09:29:18.775Z,-0.49
2023-01-18T09:34:20.100Z,-0.42
2023-01-18T09:39:18.679Z,-0.36
2023-01-18T09:44:18.657Z,-0.18
2023-01-18T09:49:18.565Z,0.11
2023-01-18T09:54:18.533Z,0.20
2023-01-18T09:59:18.436Z,0.38
2023-01-18T10:04:18.423Z,0.53
2023-01-18T10:09:18.332Z,0.70
2023-01-18T10:14:18.319Z,0.83
2023-01-18T10:19:18.258Z,1.08
2023-01-18T10:24:18.190Z,1.23
2023-01-18T10:29:18.146Z,1.15
2023-01-18T10:34:18.099Z,1.24
2023-01-18T10:39:18.081Z,1.42
2023-01-18T10:44:17.977Z,1.59
2023-01-18T10:49:17.911Z,1.62
2023-01-18T10:54:17.871Z,1.60
2023-01-18T10:59:17.891Z,1.63
2023-01-18T11:04:17.748Z,1.81
2023-01-18T11:09:17.708Z,1.88
2023-01-18T11:14:17.645Z,1.95
2023-01-18T11:19:17.587Z,2.12
2023-01-18T11:24:17.584Z,2.09
2023-01-18T11:29:17.495Z,2.03
2023-01-18T11:34:17.468Z,1.99
2023-01-18T11:39:17.407Z,2.12
2023-01-18T11:44:17.321Z,2.27
2023-01-18T11:49:17.295Z,2.46
2023-01-18T11:54:17.265Z,2.41
2023-01-18T11:59:17.206Z,2.54
2023-01-18T12:04:17.105Z,2.59
2023-01-18T12:09:17.068Z,2.79
2023-01-18T12:14:17.019Z,2.74
2023-01-18T12:19:16.981Z,2.87
2023-01-18T12:24:16.905Z,2.82
2023-01-18T12:29:16.880Z,2.93
2023-01-18T12:34:16.807Z,2.89
2023-01-18T12:39:16.775Z,2.85
2023-01-18T12:44:16.693Z,2.92
2023-01-18T12:49:16.644Z,2.93
2023-01-18T12:54:16.620Z,2.87
2023-01-18T12:59:16.563Z,2.89
2023-01-18T13:04:16.475Z,2.71
2023-01-18T13:09:16.447Z,2.81
2023-01-18T13:14:16.388Z,2.89
2023-01-18T13:19:16.346Z,2.99
2023-01-18T13:24:16.288Z,2.96
2023-01-18T13:29:16.256Z,2.95
2023-01-18T13:34:16.164Z,2.96
2023-01-18T13:39:16.118Z,2.81
2023-01-18T13:44:16.090Z,3.06
2023-01-18T13:49:35.460Z,3.00
2023-01-18T13:54:16.954Z,2.95
2023-01-18T13:59:15.870Z,2.92
2023-01-18T14:04:15.848Z,2.96
2023-01-18T14:09:15.782Z,3.00
2023-01-18T14:14:15.755Z,2.96
2023-01-18T14:19:15.672Z,3.10
2023-01-18T14:24:15.610Z,3.23
2023-01-18T14:29:15.555Z,3.20
2023-01-18T14:34:15.505Z,3.06
2023-01-18T14:39:15.458Z,2.95
2023-01-18T14:44:15.434Z,2.99
2023-01-18T14:49:15.357Z,3.03
2023-01-18T14:54:15.320Z,3.13
2023-01-18T14:59:15.279Z,2.99
2023-01-18T15:04:15.204Z,3.10
2023-01-18T15:09:15.174Z,2.97
2023-01-18T15:14:15.074Z,3.02
2023-01-18T15:19:15.033Z,3.03
2023-01-18T15:24:19.830Z,2.87
2023-01-18T15:29:14.937Z,2.81
2023-01-18T15:34:14.907Z,-39.96
2023-01-18T15:39:14.826Z,-39.96
2023-01-18T15:44:14.758Z,-39.96
2023-01-18T15:49:14.708Z,-39.96
2023-01-18T15:54:14.675Z,-39.96
2023-01-18T15:59:14.617Z,-39.96
2023-01-18T16:04:14.583Z,-39.96
2023-01-18T16:09:14.493Z,-39.96
2023-01-18T16:14:14.474Z,-39.96
2023-01-18T16:19:14.397Z,-39.96
2023-01-18T16:24:14.367Z,-39.96
2023-01-18T16:29:14.300Z,-39.96
2023-01-18T16:34:14.237Z,-39.96
2023-01-18T16:39:14.178Z,-39.96
2023-01-18T16:44:14.141Z,-39.96
2023-01-18T16:49:14.034Z,-39.96
2023-01-18T16:54:14.020Z,-39.96
2023-01-18T16:59:13.977Z,-39.96
2023-01-18T17:04:13.910Z,-39.96
2023-01-18T17:09:13.893Z,-39.96
2023-01-18T17:14:13.848Z,-39.96
2023-01-18T17:19:13.781Z,-39.96
2023-01-18T17:24:13.739Z,-39.96
2023-01-18T17:29:13.621Z,-39.96
2023-01-18T17:34:13.627Z,-39.96
2023-01-18T17:39:13.566Z,-39.96
2023-01-18T17:44:13.501Z,-39.96
2023-01-18T17:49:13.491Z,-39.96
2023-01-18T17:54:20.565Z,-39.96
2023-01-18T18:01:01.942Z,2.06
2023-01-18T18:05:25.667Z,1.91
2023-01-18T18:10:25.515Z,1.79
2023-01-18T18:15:25.533Z,1.84
2023-01-18T18:20:25.473Z,1.66
2023-01-18T18:25:25.426Z,1.58
2023-01-18T18:30:25.350Z,1.60
2023-01-18T18:35:26.432Z,1.55
2023-01-18T18:40:25.258Z,1.47
2023-01-18T18:45:25.174Z,1.47
2023-01-18T18:50:25.234Z,1.59
2023-01-18T18:55:25.127Z,1.52
2023-01-18T19:00:25.058Z,1.54
2023-01-18T19:05:25.005Z,1.32
2023-01-18T19:10:25.193Z,1.44
2023-01-18T19:15:24.866Z,1.29
2023-01-18T19:20:24.823Z,1.20
2023-01-18T19:25:24.775Z,1.23
2023-01-18T19:30:24.718Z,1.20
2023-01-18T19:35:25.655Z,1.20
2023-01-18T19:40:24.614Z,1.33
2023-01-18T19:45:28.386Z,1.29
2023-01-18T19:50:24.546Z,1.26
2023-01-18T19:55:24.489Z,1.22
2023-01-18T20:00:24.385Z,1.20
2023-01-18T20:05:24.347Z,1.16
2023-01-18T20:10:24.247Z,1.27
2023-01-18T20:15:24.241Z,1.32
2023-01-18T20:20:33.128Z,1.40
2023-01-18T20:25:24.125Z,1.40
2023-01-18T20:30:24.078Z,1.42
2023-01-18T20:35:24.084Z,1.47
2023-01-18T20:40:24.272Z,1.52
2023-01-18T20:45:24.042Z,1.50
2023-01-18T20:50:23.851Z,1.60
2023-01-18T20:55:23.794Z,1.76
2023-01-18T21:00:23.748Z,1.73
2023-01-18T21:05:23.690Z,1.88
2023-01-18T21:10:23.668Z,1.88
2023-01-18T21:15:23.589Z,1.98
2023-01-18T21:20:23.566Z,1.99
2023-01-18T21:25:23.596Z,2.03
2023-01-18T21:30:23.500Z,2.07
2023-01-18T21:35:23.430Z,1.95
2023-01-18T21:40:23.395Z,2.06
2023-01-18T21:45:23.262Z,2.18
2023-01-18T21:50:23.284Z,2.03
2023-01-18T21:55:24.183Z,2.05
2023-01-18T22:00:23.120Z,2.12
2023-01-18T22:05:23.042Z,2.16
2023-01-18T22:10:22.962Z,2.23
2023-01-18T22:15:22.920Z,2.10
2023-01-18T22:20:22.901Z,2.17
2023-01-18T22:25:22.831Z,2.17
2023-01-18T22:30:22.759Z,2.14
2023-01-18T22:35:22.730Z,2.03
2023-01-18T22:40:26.072Z,2.12
2023-01-18T22:45:22.630Z,2.16
2023-01-18T22:50:22.691Z,2.09
2023-01-18T22:55:22.449Z,2.18
2023-01-18T23:00:22.464Z,2.24
2023-01-18T23:05:22.411Z,2.24
2023-01-18T23:10:22.311Z,2.12
2023-01-18T23:15:22.388Z,2.14
2023-01-18T23:20:22.240Z,2.34
2023-01-18T23:25:22.369Z,2.36
2023-01-18T23:30:22.228Z,2.49
2023-01-18T23:35:22.058Z,2.38
2023-01-18T23:40:22.057Z,2.34
2023-01-18T23:45:22.027Z,2.42
2023-01-18T23:50:21.894Z,2.43
2023-01-18T23:55:21.843Z,2.53
